createdAt,value
2018-03-07T00:01:10.601Z,11.20
2018-03-07T00:03:38.535Z,16.50
2018-03-07T00:06:06.586Z,174.57
2018-03-07T00:08:34.542Z,93.73
2018-03-07T00:11:02.509Z,96.93
2018-03-07T00:13:30.462Z,18.27
2018-03-07T00:15:58.346Z,38.20
2018-03-07T00:18:26.262Z,15.80
2018-03-07T00:20:54.197Z,17.63
2018-03-07T00:23:22.715Z,24.97
2018-03-07T00:25:50.642Z,37.23
2018-03-07T00:28:18.742Z,39.30
2018-03-07T00:30:46.699Z,25.60
2018-03-07T00:33:14.686Z,22.07
2018-03-07T00:35:42.625Z,19.03
2018-03-07T00:38:10.550Z,11.23
2018-03-07T00:40:38.429Z,16.93
2018-03-07T00:43:06.371Z,14.63
2018-03-07T00:45:34.294Z,33.67
2018-03-07T00:48:02.280Z,23.47
2018-03-07T00:50:30.214Z,19.23
2018-03-07T00:52:58.150Z,25.90
2018-03-07T00:55:26.077Z,10.40
2018-03-07T00:57:54.069Z,26.10
2018-03-07T01:00:22.057Z,26.03
2018-03-07T01:02:49.979Z,13.23
2018-03-07T01:05:17.885Z,28.83
2018-03-07T01:07:45.869Z,11.03
2018-03-07T01:10:13.785Z,23.30
2018-03-07T01:12:41.768Z,16.83
2018-03-07T01:15:09.692Z,18.03
2018-03-07T01:17:37.651Z,12.67
2018-03-07T01:20:05.615Z,20.07
2018-03-07T01:22:33.636Z,16.10
2018-03-07T01:25:02.016Z,23.67
2018-03-07T01:27:29.984Z,16.03
2018-03-07T01:29:57.871Z,6.77
2018-03-07T01:32:25.829Z,31.13
2018-03-07T01:34:53.728Z,14.73
2018-03-07T01:37:21.673Z,18.53
2018-03-07T01:39:49.752Z,7.40
2018-03-07T01:42:17.608Z,38.63
2018-03-07T01:44:45.500Z,19.17
2018-03-07T01:47:13.453Z,4.63
2018-03-07T01:49:41.357Z,17.40
2018-03-07T01:52:09.354Z,9.33
2018-03-07T01:54:37.272Z,20.07
2018-03-07T01:57:05.192Z,19.97
2018-03-07T01:59:33.087Z,15.83
2018-03-07T02:02:01.032Z,9.87
2018-03-07T02:04:29.049Z,17.77
2018-03-07T02:06:56.941Z,9.30
2018-03-07T02:09:24.949Z,14.93
2018-03-07T02:11:52.921Z,11.00
2018-03-07T02:14:20.842Z,28.00
2018-03-07T02:16:48.754Z,35.00
2018-03-07T02:19:16.829Z,18.70
2018-03-07T02:21:44.730Z,12.93
2018-03-07T02:24:12.646Z,27.47
2018-03-07T02:26:40.817Z,27.63
2018-03-07T02:29:08.681Z,22.27
2018-03-07T02:31:36.613Z,27.37
2018-03-07T02:34:04.595Z,16.40
2018-03-07T02:36:33.613Z,36.60
2018-03-07T02:39:01.576Z,14.97
2018-03-07T02:41:29.496Z,16.10
2018-03-07T02:43:57.449Z,16.67
2018-03-07T02:46:25.446Z,21.63
2018-03-07T02:48:53.476Z,46.57
2018-03-07T02:51:21.468Z,25.13
2018-03-07T02:53:49.386Z,20.23
2018-03-07T02:56:17.340Z,11.23
2018-03-07T02:58:45.353Z,25.00
2018-03-07T03:01:13.267Z,24.27
2018-03-07T03:03:41.202Z,13.83
2018-03-07T03:06:09.207Z,15.73
2018-03-07T03:08:37.134Z,21.63
2018-03-07T03:11:05.069Z,26.77
2018-03-07T03:13:33.064Z,19.90
2018-03-07T03:16:01.076Z,16.10
2018-03-07T03:18:28.976Z,17.80
2018-03-07T03:20:56.960Z,40.63
2018-03-07T03:23:24.913Z,16.67
2018-03-07T03:25:52.870Z,15.03
2018-03-07T03:28:21.147Z,28.10
2018-03-07T03:30:49.117Z,30.50
2018-03-07T03:33:17.021Z,25.50
2018-03-07T03:35:45.048Z,14.47
2018-03-07T03:38:12.924Z,19.13
2018-03-07T03:40:40.913Z,36.43
2018-03-07T03:43:08.861Z,18.17
2018-03-07T03:45:36.792Z,23.97
2018-03-07T03:48:04.773Z,14.63
2018-03-07T03:50:32.780Z,27.63
2018-03-07T03:53:00.711Z,22.67
2018-03-07T03:55:28.621Z,9.80
2018-03-07T03:57:56.613Z,34.00
2018-03-07T04:00:24.526Z,25.10
2018-03-07T04:02:52.477Z,15.03
2018-03-07T04:05:20.448Z,34.30
2018-03-07T04:07:48.348Z,14.77
2018-03-07T04:10:16.321Z,27.90
2018-03-07T04:12:44.270Z,44.93
2018-03-07T04:15:12.191Z,144.10
2018-03-07T04:17:40.137Z,213.90
2018-03-07T04:20:08.063Z,94.13
2018-03-07T04:22:36.138Z,73.90
2018-03-07T04:25:04.124Z,60.37
2018-03-07T04:27:32.148Z,62.53
2018-03-07T04:30:00.469Z,65.43
2018-03-07T04:32:28.426Z,60.80
2018-03-07T04:34:56.357Z,258.67
2018-03-07T04:37:24.275Z,116.87
2018-03-07T04:39:52.225Z,42.87
2018-03-07T04:42:20.162Z,36.90
2018-03-07T04:44:48.112Z,75.63
2018-03-07T04:47:16.077Z,61.47
2018-03-07T04:49:44.032Z,47.83
2018-03-07T04:52:11.982Z,61.40
2018-03-07T04:54:39.814Z,64.43
2018-03-07T04:57:07.729Z,45.50
2018-03-07T04:59:35.573Z,33.23
2018-03-07T05:02:03.496Z,92.30
2018-03-07T05:04:31.436Z,103.30
2018-03-07T05:06:59.401Z,69.10
2018-03-07T05:09:27.382Z,60.93
2018-03-07T05:11:55.347Z,110.80
2018-03-07T05:14:23.269Z,78.43
2018-03-07T05:16:51.217Z,67.73
2018-03-07T05:19:19.173Z,63.17
2018-03-07T05:21:47.180Z,76.07
2018-03-07T05:24:15.157Z,49.83
2018-03-07T05:26:43.143Z,75.47
2018-03-07T05:29:11.129Z,77.57
2018-03-07T05:31:39.581Z,74.60
2018-03-07T05:34:07.592Z,90.43
2018-03-07T05:36:35.601Z,79.03
2018-03-07T05:39:03.662Z,75.30
2018-03-07T05:41:31.618Z,78.13
2018-03-07T05:43:59.614Z,86.90
2018-03-07T05:46:27.609Z,72.40
2018-03-07T05:48:55.590Z,58.70
2018-03-07T05:51:23.549Z,65.97
2018-03-07T05:53:51.465Z,57.90
2018-03-07T05:56:19.570Z,66.67
2018-03-07T05:58:47.585Z,64.27
2018-03-07T06:01:15.506Z,74.10
2018-03-07T06:03:43.436Z,46.30
2018-03-07T06:06:11.375Z,56.83
2018-03-07T06:08:39.294Z,57.63
2018-03-07T06:11:07.231Z,62.70
2018-03-07T06:13:35.130Z,51.07
2018-03-07T06:16:03.025Z,68.07
2018-03-07T06:18:30.902Z,68.97
2018-03-07T06:20:58.878Z,57.20
2018-03-07T06:23:26.789Z,86.43
2018-03-07T06:25:54.781Z,90.77
2018-03-07T06:28:22.751Z,68.10
2018-03-07T06:30:50.667Z,58.80
2018-03-07T06:33:18.988Z,57.33
2018-03-07T06:35:46.972Z,53.50
2018-03-07T06:38:14.863Z,78.40
2018-03-07T06:40:42.866Z,49.57
2018-03-07T06:43:10.824Z,45.17
2018-03-07T06:45:38.781Z,83.67
2018-03-07T06:48:06.738Z,74.07
2018-03-07T06:50:34.674Z,44.70
2018-03-07T06:53:02.697Z,47.63
2018-03-07T06:55:30.603Z,65.47
2018-03-07T06:57:58.505Z,44.13
2018-03-07T07:00:26.397Z,42.40
2018-03-07T07:02:54.343Z,50.30
2018-03-07T07:05:22.255Z,44.63
2018-03-07T07:07:50.218Z,28.70
2018-03-07T07:10:18.222Z,33.53
2018-03-07T07:12:46.214Z,14.10
2018-03-07T07:15:14.158Z,19.73
2018-03-07T07:17:42.109Z,16.23
2018-03-07T07:20:10.034Z,12.17
2018-03-07T07:22:38.470Z,20.50
2018-03-07T07:25:06.433Z,45.10
2018-03-07T07:27:34.345Z,16.13
2018-03-07T07:30:02.378Z,20.30
2018-03-07T07:32:30.267Z,14.30
2018-03-07T07:34:58.585Z,24.93
2018-03-07T07:37:26.494Z,13.03
2018-03-07T07:39:54.397Z,18.13
2018-03-07T07:42:22.361Z,19.07
2018-03-07T07:44:50.302Z,26.77
2018-03-07T07:47:18.808Z,20.83
2018-03-07T07:49:46.822Z,33.30
2018-03-07T07:52:14.861Z,8.67
2018-03-07T07:54:42.811Z,25.00
2018-03-07T07:57:10.728Z,4.00
2018-03-07T07:59:38.638Z,25.37
2018-03-07T08:02:06.671Z,10.27
2018-03-07T08:04:34.606Z,8.90
2018-03-07T08:07:02.548Z,10.83
2018-03-07T08:09:30.437Z,16.90
2018-03-07T08:11:58.413Z,20.40
2018-03-07T08:14:26.305Z,9.80
2018-03-07T08:16:54.248Z,17.53
2018-03-07T08:19:22.173Z,29.57
2018-03-07T08:21:50.128Z,14.10
2018-03-07T08:24:18.080Z,6.53
2018-03-07T08:26:46.009Z,8.10
2018-03-07T08:29:14.162Z,9.20
2018-03-07T08:31:42.160Z,5.63
2018-03-07T08:34:10.134Z,4.30
2018-03-07T08:36:38.541Z,11.87
2018-03-07T08:39:06.486Z,3.90
2018-03-07T08:41:34.504Z,26.87
2018-03-07T08:44:02.502Z,5.20
2018-03-07T08:46:30.452Z,8.87
2018-03-07T08:48:58.414Z,16.70
2018-03-07T08:51:26.540Z,11.53
2018-03-07T08:53:54.510Z,11.40
2018-03-07T08:56:22.513Z,6.13
2018-03-07T08:58:50.573Z,7.17
2018-03-07T09:01:18.676Z,10.40
2018-03-07T09:03:46.615Z,8.33
2018-03-07T09:06:14.589Z,9.77
2018-03-07T09:08:42.573Z,25.10
2018-03-07T09:11:10.533Z,22.67
2018-03-07T09:13:38.484Z,12.20
2018-03-07T09:16:06.436Z,40.83
2018-03-07T09:18:34.402Z,18.07
2018-03-07T09:21:02.302Z,13.23
2018-03-07T09:23:30.252Z,12.80
2018-03-07T09:25:58.214Z,12.80
2018-03-07T09:28:26.080Z,47.03
2018-03-07T09:30:54.050Z,9.83
2018-03-07T09:33:22.033Z,3.47
2018-03-07T09:35:50.020Z,9.63
2018-03-07T09:38:18.466Z,9.17
2018-03-07T09:40:46.393Z,7.90
2018-03-07T09:43:14.321Z,3.57
2018-03-07T09:45:42.282Z,16.57
2018-03-07T09:48:10.181Z,28.00
2018-03-07T09:50:38.104Z,13.23
2018-03-07T09:53:06.010Z,9.47
2018-03-07T09:55:33.948Z,19.43
2018-03-07T09:58:01.956Z,8.83
2018-03-07T10:00:29.946Z,11.60
2018-03-07T10:02:57.972Z,8.90
2018-03-07T10:05:26.070Z,7.13
2018-03-07T10:07:54.005Z,5.30
2018-03-07T10:10:21.977Z,3.00
2018-03-07T10:12:49.967Z,9.83
2018-03-07T10:15:17.965Z,12.67
2018-03-07T10:17:45.969Z,10.90
2018-03-07T10:20:13.878Z,6.50
2018-03-07T10:22:41.799Z,3.90
2018-03-07T10:25:09.778Z,4.50
2018-03-07T10:27:37.727Z,1.00
2018-03-07T10:30:05.741Z,1.50
2018-03-07T10:32:33.737Z,7.23
2018-03-07T10:35:01.679Z,9.53
2018-03-07T10:37:29.756Z,6.70
2018-03-07T10:39:58.212Z,13.60
2018-03-07T10:42:26.196Z,6.07
2018-03-07T10:44:54.160Z,1.70
2018-03-07T10:47:22.147Z,3.87
2018-03-07T10:49:50.166Z,4.70
2018-03-07T10:52:18.064Z,1.47
2018-03-07T10:54:46.107Z,7.60
2018-03-07T10:57:14.048Z,9.50
2018-03-07T10:59:42.075Z,5.50
2018-03-07T11:02:10.065Z,2.13
2018-03-07T11:04:38.099Z,1.93
2018-03-07T11:07:06.229Z,13.60
2018-03-07T11:09:34.184Z,2.80
2018-03-07T11:12:02.152Z,8.30
2018-03-07T11:14:30.092Z,9.03
2018-03-07T11:16:58.138Z,6.93
2018-03-07T11:19:26.084Z,20.03
2018-03-07T11:21:54.016Z,1.37
2018-03-07T11:24:22.000Z,8.40
2018-03-07T11:26:49.933Z,2.40
2018-03-07T11:29:17.842Z,4.20
2018-03-07T11:31:45.913Z,39.50
2018-03-07T11:34:13.881Z,6.50
2018-03-07T11:36:41.868Z,2.10
2018-03-07T11:39:09.842Z,6.47
2018-03-07T11:41:38.232Z,6.63
2018-03-07T11:44:06.290Z,6.73
2018-03-07T11:46:34.294Z,5.43
2018-03-07T11:49:02.230Z,1.30
2018-03-07T11:51:30.186Z,3.17
2018-03-07T11:53:58.108Z,9.00
2018-03-07T11:56:26.121Z,8.30
2018-03-07T11:58:54.302Z,2.40
2018-03-07T12:01:22.263Z,3.90
2018-03-07T12:03:50.230Z,5.17
2018-03-07T12:06:18.202Z,13.80
2018-03-07T12:08:46.163Z,12.07
2018-03-07T12:11:14.075Z,4.00
2018-03-07T12:13:42.080Z,7.30
2018-03-07T12:16:10.010Z,4.50
2018-03-07T12:18:38.030Z,1.37
2018-03-07T12:21:05.985Z,6.63
2018-03-07T12:23:33.945Z,3.33
2018-03-07T12:26:01.966Z,7.57
2018-03-07T12:28:29.950Z,10.53
2018-03-07T12:30:57.902Z,3.20
2018-03-07T12:33:26.779Z,21.33
2018-03-07T12:35:54.770Z,4.33
2018-03-07T12:38:22.688Z,1.23
2018-03-07T12:40:53.435Z,12.27
2018-03-07T12:43:21.795Z,3.10
2018-03-07T12:45:50.072Z,9.30
2018-03-07T12:48:18.038Z,5.90
2018-03-07T12:50:45.964Z,6.97
2018-03-07T12:53:13.923Z,5.13
2018-03-07T12:55:41.958Z,8.83
2018-03-07T12:58:09.954Z,6.30
2018-03-07T13:00:37.879Z,10.13
2018-03-07T13:03:05.865Z,2.97
2018-03-07T13:05:33.822Z,3.47
2018-03-07T13:08:01.801Z,10.23
2018-03-07T13:10:29.748Z,7.37
2018-03-07T13:12:57.712Z,12.27
2018-03-07T13:15:25.689Z,2.87
2018-03-07T13:17:53.705Z,4.40
2018-03-07T13:20:21.582Z,4.57
2018-03-07T13:22:49.542Z,6.77
2018-03-07T13:25:17.524Z,27.23
2018-03-07T13:27:45.506Z,8.00
2018-03-07T13:30:13.585Z,2.70
2018-03-07T13:32:41.518Z,1.70
2018-03-07T13:35:09.406Z,2.40
2018-03-07T13:37:37.448Z,4.50
2018-03-07T13:40:05.418Z,2.17
2018-03-07T13:42:33.385Z,11.00
2018-03-07T13:45:01.640Z,11.50
2018-03-07T13:47:29.676Z,6.83
2018-03-07T13:49:57.637Z,3.33
2018-03-07T13:52:25.599Z,8.63
2018-03-07T13:54:53.530Z,4.67
2018-03-07T13:57:21.476Z,18.07
2018-03-07T13:59:49.416Z,13.53
2018-03-07T14:02:17.368Z,8.23
2018-03-07T14:04:45.313Z,9.80
2018-03-07T14:07:13.269Z,5.80
2018-03-07T14:09:41.238Z,3.20
2018-03-07T14:12:09.177Z,9.83
2018-03-07T14:14:37.182Z,15.97
2018-03-07T14:17:05.148Z,12.43
2018-03-07T14:19:33.139Z,19.97
2018-03-07T14:22:01.088Z,12.40
2018-03-07T14:24:28.991Z,11.97
2018-03-07T14:26:56.947Z,9.30
2018-03-07T14:29:24.884Z,11.53
2018-03-07T14:31:52.904Z,12.50
2018-03-07T14:34:20.871Z,14.90
2018-03-07T14:36:48.798Z,12.87
2018-03-07T14:39:16.811Z,7.93
2018-03-07T14:41:44.785Z,8.77
2018-03-07T14:44:12.732Z,18.13
2018-03-07T14:46:41.048Z,5.40
2018-03-07T14:49:09.038Z,20.73
2018-03-07T14:51:36.925Z,10.43
2018-03-07T14:54:04.919Z,12.63
2018-03-07T14:56:32.793Z,8.60
2018-03-07T14:59:00.754Z,24.73
2018-03-07T15:01:28.652Z,11.90
2018-03-07T15:03:56.521Z,21.90
2018-03-07T15:06:24.444Z,11.93
2018-03-07T15:08:52.364Z,34.27
2018-03-07T15:11:20.320Z,13.83
2018-03-07T15:13:48.241Z,20.43
2018-03-07T15:16:16.181Z,11.70
2018-03-07T15:18:44.171Z,32.20
2018-03-07T15:21:12.090Z,51.70
2018-03-07T15:23:40.083Z,28.90
2018-03-07T15:26:08.057Z,23.47
2018-03-07T15:28:35.964Z,44.67
2018-03-07T15:31:04.023Z,29.73
2018-03-07T15:33:31.912Z,21.90
2018-03-07T15:35:59.853Z,19.30
2018-03-07T15:38:27.802Z,15.77
2018-03-07T15:40:55.715Z,5.40
2018-03-07T15:43:23.657Z,19.97
2018-03-07T15:45:51.631Z,11.70
2018-03-07T15:48:19.817Z,31.90
2018-03-07T15:50:47.858Z,27.20
2018-03-07T15:53:15.789Z,9.67
2018-03-07T15:55:43.758Z,17.10
2018-03-07T15:58:11.818Z,5.87
2018-03-07T16:00:39.737Z,10.13
2018-03-07T16:03:07.701Z,39.23
2018-03-07T16:05:35.602Z,12.73
2018-03-07T16:08:03.521Z,16.00
2018-03-07T16:10:31.470Z,34.43
2018-03-07T16:12:59.377Z,27.60
2018-03-07T16:15:27.394Z,43.67
2018-03-07T16:17:55.563Z,56.63
2018-03-07T16:20:23.527Z,25.53
2018-03-07T16:22:51.529Z,26.13
2018-03-07T16:25:19.457Z,42.07
2018-03-07T16:27:47.347Z,47.53
2018-03-07T16:30:15.320Z,45.37
2018-03-07T16:32:43.349Z,38.13
2018-03-07T16:35:11.378Z,43.87
2018-03-07T16:37:39.326Z,11.63
2018-03-07T16:40:07.258Z,14.03
2018-03-07T16:42:35.212Z,29.83
2018-03-07T16:45:03.142Z,32.17
2018-03-07T16:47:31.057Z,30.63
2018-03-07T16:49:59.473Z,60.40
2018-03-07T16:52:27.449Z,29.37
2018-03-07T16:54:55.371Z,29.17
2018-03-07T16:57:23.333Z,88.40
2018-03-07T16:59:51.313Z,33.83
2018-03-07T17:02:19.288Z,47.53
2018-03-07T17:04:47.233Z,96.57
2018-03-07T17:07:15.159Z,52.10
2018-03-07T17:09:43.080Z,45.23
2018-03-07T17:12:11.041Z,41.20
2018-03-07T17:14:38.981Z,44.70
2018-03-07T17:17:06.923Z,34.97
2018-03-07T17:19:34.838Z,31.43
2018-03-07T17:22:02.708Z,12.57
2018-03-07T17:24:30.625Z,10.33
2018-03-07T17:26:58.659Z,7.57
2018-03-07T17:29:26.648Z,13.00
2018-03-07T17:31:54.552Z,27.63
2018-03-07T17:34:22.474Z,26.70
2018-03-07T17:36:50.433Z,20.40
2018-03-07T17:39:18.394Z,31.83
2018-03-07T17:41:46.307Z,24.17
2018-03-07T17:44:14.397Z,30.43
2018-03-07T17:46:42.392Z,39.00
2018-03-07T17:49:10.331Z,40.30
2018-03-07T17:51:38.794Z,40.60
2018-03-07T17:54:06.730Z,55.90
2018-03-07T17:56:34.724Z,55.87
2018-03-07T17:59:02.669Z,70.53
2018-03-07T18:01:30.566Z,68.97
2018-03-07T18:03:58.461Z,67.80
2018-03-07T18:06:26.478Z,81.30
2018-03-07T18:08:54.512Z,89.10
2018-03-07T18:11:22.439Z,61.23
2018-03-07T18:13:50.353Z,67.57
2018-03-07T18:16:18.363Z,56.40
2018-03-07T18:18:46.192Z,73.73
2018-03-07T18:21:14.183Z,61.80
2018-03-07T18:23:42.169Z,45.80
2018-03-07T18:26:10.097Z,38.40
2018-03-07T18:28:38.035Z,121.17
2018-03-07T18:31:06.022Z,78.83
2018-03-07T18:33:33.970Z,61.97
2018-03-07T18:36:01.902Z,102.30
2018-03-07T18:38:29.849Z,99.53
2018-03-07T18:40:57.761Z,82.00
2018-03-07T18:43:25.693Z,95.43
2018-03-07T18:45:53.633Z,96.90
2018-03-07T18:48:21.624Z,78.50
2018-03-07T18:50:49.528Z,78.20
2018-03-07T18:53:17.973Z,95.53
2018-03-07T18:55:45.862Z,86.77
2018-03-07T18:58:13.801Z,65.63
2018-03-07T19:00:41.790Z,62.43
2018-03-07T19:03:09.722Z,54.03
2018-03-07T19:05:37.649Z,56.70
2018-03-07T19:08:08.459Z,133.90
2018-03-07T19:10:36.418Z,35.13
2018-03-07T19:13:04.346Z,19.00
2018-03-07T19:15:32.302Z,4.60
2018-03-07T19:18:00.270Z,9.50
2018-03-07T19:20:28.224Z,6.40
2018-03-07T19:22:56.186Z,6.17
2018-03-07T19:25:24.215Z,4.57
2018-03-07T19:27:52.169Z,6.60
2018-03-07T19:30:20.090Z,10.53
2018-03-07T19:32:48.394Z,26.97
2018-03-07T19:35:16.368Z,11.63
2018-03-07T19:37:45.325Z,20.53
2018-03-07T19:40:13.322Z,385.97
2018-03-07T19:42:41.283Z,58.10
2018-03-07T19:45:09.274Z,36.87
2018-03-07T19:47:37.214Z,31.13
2018-03-07T19:50:05.243Z,20.33
2018-03-07T19:52:33.173Z,12.67
2018-03-07T19:55:01.301Z,15.63
2018-03-07T19:57:30.387Z,15.27
2018-03-07T19:59:58.520Z,10.37
2018-03-07T20:02:26.497Z,15.07
2018-03-07T20:04:54.404Z,17.00
2018-03-07T20:07:22.414Z,89.30
2018-03-07T20:09:50.410Z,82.23
2018-03-07T20:12:18.331Z,91.30
2018-03-07T20:14:46.241Z,44.50
2018-03-07T20:17:14.157Z,44.93
2018-03-07T20:19:42.169Z,52.07
2018-03-07T20:22:10.126Z,54.13
2018-03-07T20:24:38.061Z,30.50
2018-03-07T20:27:06.048Z,36.23
2018-03-07T20:29:33.973Z,43.80
2018-03-07T20:32:01.884Z,37.13
2018-03-07T20:34:29.808Z,44.20
2018-03-07T20:36:57.745Z,70.40
2018-03-07T20:39:25.669Z,49.80
2018-03-07T20:41:53.645Z,56.03
2018-03-07T20:44:21.597Z,55.07
2018-03-07T20:46:49.521Z,49.13
2018-03-07T20:49:17.489Z,43.20
2018-03-07T20:51:45.529Z,49.17
2018-03-07T20:54:13.496Z,43.73
2018-03-07T20:56:41.573Z,46.50
2018-03-07T20:59:09.464Z,44.70
2018-03-07T21:01:37.417Z,55.13
2018-03-07T21:04:05.344Z,50.70
2018-03-07T21:06:33.389Z,65.40
2018-03-07T21:09:01.321Z,78.17
2018-03-07T21:11:29.328Z,65.93
2018-03-07T21:13:57.240Z,76.10
2018-03-07T21:16:25.197Z,79.37
2018-03-07T21:18:53.151Z,85.40
2018-03-07T21:21:21.123Z,83.53
2018-03-07T21:23:49.060Z,58.37
2018-03-07T21:26:16.976Z,66.20
2018-03-07T21:28:44.894Z,48.37
2018-03-07T21:31:12.898Z,76.97
2018-03-07T21:33:40.841Z,77.37
2018-03-07T21:36:08.845Z,73.30
2018-03-07T21:38:36.814Z,64.83
2018-03-07T21:41:04.856Z,58.60
2018-03-07T21:43:32.769Z,59.30
2018-03-07T21:46:00.705Z,65.97
2018-03-07T21:48:28.578Z,84.23
2018-03-07T21:50:56.482Z,76.63
2018-03-07T21:53:24.482Z,63.10
2018-03-07T21:55:52.483Z,77.27
2018-03-07T21:58:20.840Z,70.00
2018-03-07T22:00:48.774Z,60.60
2018-03-07T22:03:16.806Z,78.70
2018-03-07T22:05:44.805Z,91.00
2018-03-07T22:08:12.793Z,83.43
2018-03-07T22:10:40.750Z,94.33
2018-03-07T22:13:08.798Z,83.80
2018-03-07T22:15:36.801Z,82.77
2018-03-07T22:18:04.806Z,81.63
2018-03-07T22:20:32.750Z,83.47
2018-03-07T22:23:00.823Z,103.87
2018-03-07T22:25:28.784Z,73.03
2018-03-07T22:27:56.676Z,77.63
2018-03-07T22:30:24.569Z,81.20
2018-03-07T22:32:52.456Z,81.50
2018-03-07T22:35:20.416Z,77.40
2018-03-07T22:37:48.323Z,74.03
2018-03-07T22:40:16.306Z,69.30
2018-03-07T22:42:44.273Z,72.53
2018-03-07T22:45:12.224Z,88.13
2018-03-07T22:47:40.177Z,80.67
2018-03-07T22:50:08.095Z,48.07
2018-03-07T22:52:36.035Z,55.53
2018-03-07T22:55:03.997Z,54.23
2018-03-07T22:57:31.949Z,52.23
2018-03-07T23:00:00.252Z,50.87
2018-03-07T23:02:28.206Z,61.70
2018-03-07T23:04:56.180Z,60.43
2018-03-07T23:07:24.151Z,66.10
2018-03-07T23:09:52.116Z,67.53
2018-03-07T23:12:20.117Z,52.40
2018-03-07T23:14:48.154Z,55.70
2018-03-07T23:17:16.081Z,57.07
2018-03-07T23:19:44.066Z,50.00
2018-03-07T23:22:12.031Z,45.23
2018-03-07T23:24:39.928Z,51.43
2018-03-07T23:27:07.885Z,66.53
2018-03-07T23:29:35.817Z,56.83
2018-03-07T23:32:03.716Z,63.83
2018-03-07T23:34:31.621Z,66.77
2018-03-07T23:36:59.540Z,59.90
2018-03-07T23:39:27.449Z,71.77
2018-03-07T23:41:55.454Z,65.67
2018-03-07T23:44:23.442Z,62.30
2018-03-07T23:46:51.413Z,51.40
2018-03-07T23:49:19.317Z,54.20
2018-03-07T23:51:47.269Z,64.57
2018-03-07T23:54:15.252Z,51.70
2018-03-07T23:56:43.157Z,62.00
2018-03-07T23:59:11.065Z,67.43
